Osaka, Japan
Current Conditions -  °F | °C
As of 5:00 PM on Sunday 23 Nov 2014 (Local Time) from RJOO Reporting Station
Broken Clouds Broken Clouds  
Wind Chill: 59°   Ceiling: Unl
Heat Index: 59°   Visibility: 6mi
Dew Point: 43°   Wind: 5mph
Humidity: 55%   Direction: 40°NE
Pressure: 30.21"   Gusts: NA
Location:  34.68°N, 135.5°E
Report Text: RJOO 230800Z 04004KT 9999 FEW030 BKN/// 15/06 Q1023 RMK 1CU030 A3022
Loading
Personal Weather Stations






























Interactive Weather Map New forecast layout! Learn more

10-Day Weather Forecast

Advertisements
Track Severe Weather on mobile